This is the latest recevied weather packets stored in our database for station/object WC4PEM-4. If no packets are shown the sender has not sent any weather packets the latest 10 day(s).
| Time | Temp. | Humidity | Pressure | Rain* | Wind** | Luminosity | Snow |
|---|---|---|---|---|---|---|---|
| 1788286578 | 24.44° C | 92% | 1016.4 hPa | 10.67 mm | - | - | - |
| 1788286441 | 24.44° C | 91% | 1016.4 hPa | 10.16 mm | - | - | - |
| 1788286402 | 24.44° C | 91% | 1016.4 hPa | 10.16 mm | - | - | - |
| 1788286278 | 24.44° C | 91% | 1016.4 hPa | 10.16 mm | - | - | - |
| 1788286139 | 24.44° C | 90% | 1016.6 hPa | 9.4 mm | - | - | - |
| 1788286091 | 24.44° C | 90% | 1016.6 hPa | 9.4 mm | - | - | - |
| 1788285978 | 24.44° C | 90% | 1016.6 hPa | 9.4 mm | - | - | - |
| 1788285835 | 25° C | 92% | 1016.7 hPa | 8.38 mm | - | - | - |
| 1788285678 | 25° C | 92% | 1016.7 hPa | 8.38 mm | - | - | - |
| 1788285492 | 25.56° C | 90% | 1017 hPa | 4.83 mm | - | - | - |
| 1788285378 | 25.56° C | 90% | 1017 hPa | 4.83 mm | - | - | - |
| 1788285078 | 26.11° C | 87% | 1016.9 hPa | 1.78 mm | - | - | - |
| 1788284778 | 26.67° C | 86% | 1016.9 hPa | 1.52 mm | - | - | - |
| 1788284693 | 27.22° C | 85% | 1016.7 hPa | 1.27 mm | - | - | - |
| 1788284478 | 27.22° C | 85% | 1016.7 hPa | 1.27 mm | - | - | - |
| 1788284369 | 27.78° C | 81% | 1016.7 hPa | 0.51 mm | - | - | - |
| 1788284178 | 27.78° C | 81% | 1016.7 hPa | 0.51 mm | - | - | - |
| 1788284091 | 28.89° C | 76% | 1016.7 hPa | 0 mm | - | - | - |
| 1788283878 | 28.89° C | 76% | 1016.7 hPa | 0 mm | - | - | - |
| 1788283737 | 30° C | 72% | 1016.6 hPa | 0 mm | - | - | - |
| 1788283593 | 30° C | 72% | 1016.6 hPa | 0 mm | - | - | - |
| 1788283450 | 30° C | 71% | 1016.7 hPa | 0 mm | - | - | - |
| 1788283278 | 30° C | 71% | 1016.7 hPa | 0 mm | - | - | - |
| 1788283090 | 30° C | 69% | 1016.8 hPa | 0 mm | - | - | - |
| 1788282978 | 30° C | 69% | 1016.8 hPa | 0 mm | - | - | - |
* Rain latest hour (hover to see other rain measurements)
** Current wind speed in m/s (hover to see current wind gust speed)